createdAt,value
2022-08-25T00:14:20.620Z,48.8
2022-08-25T00:29:29.909Z,48.7
2022-08-25T00:44:39.100Z,49
2022-08-25T00:59:50.619Z,49.2
2022-08-25T01:15:00.185Z,49.1
2022-08-25T01:30:09.478Z,49.8
2022-08-25T01:45:19.044Z,50.2
2022-08-25T02:00:29.189Z,50.5
2022-08-25T02:15:37.849Z,50.7
2022-08-25T02:30:47.703Z,51.1
2022-08-25T02:45:57.966Z,51.4
2022-08-25T03:01:08.000Z,51.7
2022-08-25T03:16:18.870Z,51.6
2022-08-25T03:31:28.746Z,51.8
2022-08-25T03:46:38.266Z,52.5
2022-08-25T04:01:55.996Z,52.8
2022-08-25T04:17:05.213Z,53.1
2022-08-25T04:32:15.084Z,53.4
2022-08-25T04:47:24.078Z,53.8
2022-08-25T05:02:33.573Z,54.2
2022-08-25T05:17:43.098Z,54.4
2022-08-25T05:32:52.367Z,54.5
2022-08-25T05:48:01.052Z,54.7
2022-08-25T06:03:10.578Z,54.7
2022-08-25T06:18:20.185Z,54.9
2022-08-25T06:33:29.659Z,54.9
2022-08-25T06:48:39.106Z,55
2022-08-25T07:03:52.778Z,55
2022-08-25T07:19:08.649Z,55.1
2022-08-25T07:34:18.525Z,55.2
2022-08-25T07:51:28.132Z,55.3
2022-08-25T08:06:39.476Z,55.7
2022-08-25T08:21:57.001Z,55
2022-08-25T08:37:10.827Z,55
2022-08-25T08:52:25.158Z,55
2022-08-25T09:07:42.658Z,54.9
2022-08-25T09:22:54.139Z,54.8
2022-08-25T09:38:04.805Z,54.6
2022-08-25T09:53:22.100Z,54.5
2022-08-25T10:08:34.645Z,54.8
2022-08-25T10:23:44.486Z,54
2022-08-25T10:38:54.179Z,53.9
2022-08-25T10:54:10.735Z,54.1
2022-08-25T11:09:23.021Z,53.9
2022-08-25T11:24:37.752Z,53.6
2022-08-25T11:39:49.758Z,53.2
2022-08-25T11:54:59.532Z,53.1
2022-08-25T12:10:11.295Z,49.4
2022-08-25T12:25:21.822Z,51.5
2022-08-25T12:40:32.590Z,51.8
2022-08-25T12:55:43.859Z,50.7
2022-08-25T13:10:54.082Z,49.9
2022-08-25T13:26:04.882Z,48.8
2022-08-25T13:41:15.413Z,48.9
2022-08-25T13:56:37.994Z,48.5
2022-08-25T14:11:51.161Z,48.2
2022-08-25T14:27:00.788Z,49.1
2022-08-25T14:42:10.477Z,48.8
2022-08-25T14:57:24.053Z,48.2
2022-08-25T15:12:55.004Z,49.1
2022-08-25T15:28:10.685Z,48.8
2022-08-25T15:43:20.881Z,49.1
2022-08-25T15:58:30.408Z,49.7
2022-08-25T16:13:42.467Z,50.1
2022-08-25T16:28:51.284Z,50.4
2022-08-25T16:44:00.707Z,50.4
2022-08-25T16:59:09.648Z,50.6
2022-08-25T17:14:20.875Z,50.7
2022-08-25T17:29:30.518Z,50.5
2022-08-25T17:44:43.343Z,51.1
2022-08-25T17:59:57.262Z,51.3
2022-08-25T18:15:08.491Z,51.5
2022-08-25T18:30:18.619Z,51.8
2022-08-25T18:45:27.920Z,52.1
2022-08-25T19:00:36.998Z,52.3
2022-08-25T19:15:47.269Z,52.6
2022-08-25T19:30:59.024Z,52.8
2022-08-25T19:46:10.533Z,53.1
2022-08-25T20:01:21.152Z,53.3
2022-08-25T20:16:31.845Z,53.7
2022-08-25T20:31:44.031Z,53.9
2022-08-25T20:46:55.064Z,54.1
2022-08-25T21:02:04.263Z,54.2
2022-08-25T21:17:13.813Z,54.6
2022-08-25T21:32:23.618Z,54.7
2022-08-25T21:47:35.947Z,54.9
2022-08-25T22:02:45.935Z,55.1
2022-08-25T22:17:55.432Z,55.4
2022-08-25T22:33:09.909Z,55.6
2022-08-25T22:48:24.853Z,55.9
2022-08-25T23:03:48.202Z,56.1
2022-08-25T23:18:58.395Z,56.5
2022-08-25T23:34:08.207Z,56.7
2022-08-25T23:49:20.819Z,57
